createdAt,value
2022-12-25T00:00:51.256Z,61.90
2022-12-25T00:03:17.941Z,62.30
2022-12-25T00:05:44.668Z,61.70
2022-12-25T00:08:11.213Z,61.70
2022-12-25T00:10:44.727Z,61.70
2022-12-25T00:13:11.962Z,61.90
2022-12-25T00:15:41.923Z,61.90
2022-12-25T00:18:09.029Z,62.00
2022-12-25T00:20:35.740Z,62.10
2022-12-25T00:23:02.387Z,61.90
2022-12-25T00:25:29.028Z,62.10
2022-12-25T00:27:55.636Z,61.70
2022-12-25T00:30:22.224Z,61.60
2022-12-25T00:32:48.800Z,62.40
2022-12-25T00:35:15.482Z,62.00
2022-12-25T00:37:42.043Z,61.60
2022-12-25T00:40:08.961Z,62.30
2022-12-25T00:42:35.711Z,62.50
2022-12-25T00:45:02.483Z,62.90
2022-12-25T00:47:29.386Z,62.90
2022-12-25T00:49:56.442Z,62.60
2022-12-25T00:52:23.087Z,62.30
2022-12-25T00:54:49.656Z,61.90
2022-12-25T00:57:16.266Z,61.80
2022-12-25T00:59:42.839Z,61.70
2022-12-25T01:02:25.155Z,61.70
2022-12-25T01:04:53.193Z,61.70
2022-12-25T01:07:20.093Z,61.70
2022-12-25T01:10:05.622Z,61.60
2022-12-25T01:12:33.103Z,61.50
2022-12-25T01:14:59.706Z,61.50
2022-12-25T01:17:26.344Z,61.30
2022-12-25T01:19:52.905Z,61.40
2022-12-25T01:22:19.942Z,61.30
2022-12-25T01:24:46.578Z,61.30
2022-12-25T01:27:13.455Z,61.20
2022-12-25T01:29:40.038Z,61.10
2022-12-25T01:32:06.907Z,61.20
2022-12-25T01:34:33.554Z,61.20
2022-12-25T01:37:00.222Z,61.00
2022-12-25T01:39:26.817Z,61.00
2022-12-25T01:41:53.403Z,61.00
2022-12-25T01:44:19.913Z,61.00
2022-12-25T01:46:46.467Z,61.00
2022-12-25T01:49:17.803Z,60.90
2022-12-25T01:51:49.724Z,60.90
2022-12-25T01:54:18.519Z,61.00
2022-12-25T01:56:46.697Z,60.90
2022-12-25T01:59:17.456Z,60.80
2022-12-25T02:01:44.277Z,60.80
2022-12-25T02:04:25.075Z,60.80
2022-12-25T02:06:51.726Z,60.60
2022-12-25T02:09:18.849Z,60.50
2022-12-25T02:11:58.299Z,60.20
2022-12-25T02:14:27.250Z,59.90
2022-12-25T02:17:04.946Z,60.00
2022-12-25T02:19:42.845Z,60.10
2022-12-25T02:22:12.482Z,60.60
2022-12-25T02:24:39.012Z,59.90
2022-12-25T02:27:11.766Z,59.90
2022-12-25T02:29:57.179Z,60.50
2022-12-25T02:32:50.147Z,59.90
2022-12-25T02:35:19.838Z,59.90
2022-12-25T02:37:49.466Z,59.70
2022-12-25T02:40:18.539Z,59.70
2022-12-25T02:43:04.065Z,59.70
2022-12-25T02:45:52.782Z,59.70
2022-12-25T02:48:40.197Z,59.80
2022-12-25T02:51:27.353Z,59.70
2022-12-25T02:54:13.887Z,59.60
2022-12-25T02:57:00.384Z,59.60
2022-12-25T02:59:46.666Z,59.60
2022-12-25T03:02:33.309Z,59.50
2022-12-25T03:05:20.429Z,59.50
2022-12-25T03:07:47.404Z,59.50
2022-12-25T03:10:33.185Z,59.50
2022-12-25T03:13:12.672Z,59.50
2022-12-25T03:15:58.049Z,59.40
2022-12-25T03:18:26.478Z,59.50
2022-12-25T03:21:12.751Z,59.60
2022-12-25T03:23:58.966Z,59.50
2022-12-25T03:26:45.110Z,59.20
2022-12-25T03:29:32.105Z,59.00
2022-12-25T03:32:06.362Z,59.10
2022-12-25T03:35:10.651Z,59.20
2022-12-25T03:38:14.640Z,59.30
2022-12-25T03:41:02.771Z,59.00
2022-12-25T03:44:10.913Z,59.10
2022-12-25T03:46:58.774Z,59.10
2022-12-25T03:49:49.477Z,59.00
2022-12-25T03:52:36.102Z,58.80
2022-12-25T03:55:23.123Z,58.90
2022-12-25T03:58:08.333Z,58.90
2022-12-25T04:00:53.549Z,59.10
2022-12-25T04:03:38.674Z,58.70
2022-12-25T04:06:23.833Z,58.80
2022-12-25T04:09:09.036Z,58.70
2022-12-25T04:12:00.486Z,58.70
2022-12-25T04:14:47.475Z,58.50
2022-12-25T04:17:32.643Z,58.50
2022-12-25T04:20:17.983Z,58.40
2022-12-25T04:23:03.166Z,58.50
2022-12-25T04:25:48.340Z,58.30
2022-12-25T04:28:33.541Z,58.30
2022-12-25T04:31:19.721Z,58.40
2022-12-25T04:34:04.961Z,58.30
2022-12-25T04:36:31.495Z,58.20
2022-12-25T04:38:58.057Z,58.20
2022-12-25T04:41:24.646Z,58.20
2022-12-25T04:43:51.240Z,58.40
2022-12-25T04:46:17.815Z,58.20
2022-12-25T04:48:44.379Z,58.10
2022-12-25T04:51:12.093Z,57.90
2022-12-25T04:53:38.734Z,57.90
2022-12-25T04:56:05.653Z,58.00
2022-12-25T04:58:32.327Z,57.90
2022-12-25T05:00:59.768Z,57.90
2022-12-25T05:03:26.372Z,57.80
2022-12-25T05:05:53.014Z,57.90
2022-12-25T05:08:19.568Z,57.80
2022-12-25T05:10:46.147Z,57.80
2022-12-25T05:13:12.729Z,58.40
2022-12-25T05:15:39.834Z,57.70
2022-12-25T05:18:06.767Z,57.90
2022-12-25T05:20:39.595Z,57.80
2022-12-25T05:23:06.656Z,57.40
2022-12-25T05:25:33.207Z,57.40
2022-12-25T05:27:59.831Z,58.20
2022-12-25T05:30:26.408Z,57.60
2022-12-25T05:32:52.993Z,57.70
2022-12-25T05:35:19.603Z,57.10
2022-12-25T05:37:46.184Z,57.30
2022-12-25T05:40:12.814Z,57.40
2022-12-25T05:42:39.356Z,57.40
2022-12-25T05:45:06.456Z,57.30
2022-12-25T05:47:33.221Z,57.30
2022-12-25T05:49:59.821Z,57.20
2022-12-25T05:52:26.408Z,57.30
2022-12-25T05:54:52.981Z,58.40
2022-12-25T05:57:19.584Z,57.00
2022-12-25T05:59:46.196Z,57.40
2022-12-25T06:02:12.859Z,57.30
2022-12-25T06:04:39.681Z,57.10
2022-12-25T06:07:06.288Z,56.70
2022-12-25T06:09:32.864Z,56.60
2022-12-25T06:11:59.497Z,56.80
2022-12-25T06:14:26.098Z,56.90
2022-12-25T06:16:53.128Z,57.00
2022-12-25T06:19:20.448Z,56.30
2022-12-25T06:21:47.312Z,56.90
2022-12-25T06:24:20.812Z,56.40
2022-12-25T06:26:47.947Z,56.30
2022-12-25T06:29:14.543Z,56.30
2022-12-25T06:31:41.238Z,55.80
2022-12-25T06:34:08.443Z,56.40
2022-12-25T06:36:36.801Z,56.00
2022-12-25T06:39:03.689Z,56.50
2022-12-25T06:41:30.592Z,55.90
2022-12-25T06:43:58.410Z,55.50
2022-12-25T06:46:25.939Z,55.50
2022-12-25T06:48:52.623Z,56.10
2022-12-25T06:51:20.205Z,56.90
2022-12-25T06:53:47.412Z,55.70
2022-12-25T06:56:15.851Z,55.40
2022-12-25T06:58:46.948Z,55.70
2022-12-25T07:01:21.364Z,55.60
2022-12-25T07:03:50.085Z,55.90
2022-12-25T07:06:16.737Z,55.40
2022-12-25T07:08:43.355Z,56.00
2022-12-25T07:11:09.989Z,55.30
2022-12-25T07:13:36.624Z,56.00
2022-12-25T07:16:04.536Z,55.60
2022-12-25T07:18:31.571Z,55.40
2022-12-25T07:20:59.713Z,55.40
2022-12-25T07:23:26.905Z,55.30
2022-12-25T07:25:57.517Z,55.90
2022-12-25T07:28:24.630Z,55.30
2022-12-25T07:30:51.479Z,55.10
2022-12-25T07:33:18.304Z,55.10
2022-12-25T07:35:44.871Z,55.30
2022-12-25T07:38:11.507Z,55.40
2022-12-25T07:40:38.537Z,55.20
2022-12-25T07:43:05.252Z,54.80
2022-12-25T07:45:31.897Z,54.90
2022-12-25T07:48:04.402Z,54.70
2022-12-25T07:50:32.426Z,56.30
2022-12-25T07:52:59.063Z,55.50
2022-12-25T07:55:25.747Z,55.30
2022-12-25T07:57:52.312Z,55.30
2022-12-25T08:00:19.199Z,55.60
2022-12-25T08:02:45.969Z,55.60
2022-12-25T08:05:12.770Z,56.40
2022-12-25T08:07:39.354Z,55.00
2022-12-25T08:10:06.329Z,54.50
2022-12-25T08:12:33.074Z,55.10
2022-12-25T08:14:59.737Z,55.00
2022-12-25T08:17:26.403Z,55.90
2022-12-25T08:19:53.048Z,55.30
2022-12-25T08:22:19.685Z,55.50
2022-12-25T08:24:46.272Z,55.50
2022-12-25T08:27:12.842Z,55.00
2022-12-25T08:29:39.473Z,54.90
2022-12-25T08:32:06.089Z,54.90
2022-12-25T08:34:32.723Z,54.40
2022-12-25T08:36:59.319Z,54.60
2022-12-25T08:39:25.960Z,54.80
2022-12-25T08:41:52.545Z,54.40
2022-12-25T08:44:19.158Z,54.50
2022-12-25T08:46:45.847Z,54.60
2022-12-25T08:49:12.535Z,54.80
2022-12-25T08:51:39.170Z,54.80
2022-12-25T08:54:05.857Z,54.20
2022-12-25T08:56:32.618Z,54.40
2022-12-25T08:58:59.381Z,54.70
2022-12-25T09:01:26.360Z,55.60
2022-12-25T09:03:53.125Z,53.90
2022-12-25T09:06:19.842Z,53.80
2022-12-25T09:08:49.661Z,54.20
2022-12-25T09:11:17.629Z,54.00
2022-12-25T09:13:44.310Z,54.70
2022-12-25T09:16:12.552Z,54.30
2022-12-25T09:18:39.215Z,54.20
2022-12-25T09:21:06.682Z,54.70
2022-12-25T09:23:33.750Z,53.90
2022-12-25T09:26:01.107Z,54.00
2022-12-25T09:28:27.946Z,53.70
2022-12-25T09:30:54.689Z,53.60
2022-12-25T09:33:22.156Z,53.80
2022-12-25T09:35:59.167Z,53.50
2022-12-25T09:38:25.811Z,53.60
2022-12-25T09:40:58.451Z,53.70
2022-12-25T09:43:26.454Z,54.40
2022-12-25T09:45:53.083Z,54.10
2022-12-25T09:48:20.140Z,53.50
2022-12-25T09:50:50.379Z,53.80
2022-12-25T09:53:22.974Z,54.90
2022-12-25T09:55:56.198Z,53.80
2022-12-25T09:58:23.355Z,54.00
2022-12-25T10:00:57.409Z,53.90
2022-12-25T10:03:30.324Z,54.30
2022-12-25T10:06:12.329Z,54.40
2022-12-25T10:08:54.042Z,54.10
2022-12-25T10:11:42.677Z,54.40
2022-12-25T10:14:32.542Z,54.30
2022-12-25T10:17:08.218Z,54.20
2022-12-25T10:19:34.769Z,54.50
2022-12-25T10:22:03.980Z,54.50
2022-12-25T10:24:33.642Z,55.00
2022-12-25T10:27:02.552Z,54.30
2022-12-25T10:29:31.054Z,54.30
2022-12-25T10:31:57.819Z,54.60
2022-12-25T10:34:24.619Z,54.60
2022-12-25T10:36:51.263Z,54.20
2022-12-25T10:39:18.844Z,54.50
2022-12-25T10:42:04.232Z,54.80
2022-12-25T10:44:30.888Z,54.90
2022-12-25T10:46:58.713Z,54.40
2022-12-25T10:49:28.150Z,55.40
2022-12-25T10:51:54.778Z,55.90
2022-12-25T10:54:21.350Z,54.90
2022-12-25T10:57:00.887Z,54.50
2022-12-25T10:59:28.507Z,55.30
2022-12-25T11:01:55.956Z,55.00
2022-12-25T11:04:25.609Z,55.00
2022-12-25T11:06:56.264Z,55.00
2022-12-25T11:09:22.888Z,55.00
2022-12-25T11:11:49.582Z,55.10
2022-12-25T11:14:18.566Z,55.10
2022-12-25T11:16:45.276Z,55.10
2022-12-25T11:19:24.111Z,54.90
2022-12-25T11:21:52.512Z,55.00
2022-12-25T11:24:20.622Z,54.80
2022-12-25T11:26:51.766Z,55.00
2022-12-25T11:29:30.620Z,55.70
2022-12-25T11:31:58.343Z,55.90
2022-12-25T11:34:36.967Z,55.50
2022-12-25T11:37:08.415Z,55.80
2022-12-25T11:39:36.144Z,56.00
2022-12-25T11:42:06.772Z,55.90
2022-12-25T11:44:33.375Z,55.80
2022-12-25T11:47:03.438Z,55.60
2022-12-25T11:49:45.864Z,55.50
2022-12-25T11:52:17.162Z,55.60
2022-12-25T11:55:04.011Z,55.60
2022-12-25T11:57:31.209Z,55.50
2022-12-25T12:00:06.793Z,55.80
2022-12-25T12:02:36.526Z,55.60
2022-12-25T12:05:12.263Z,55.40
2022-12-25T12:07:50.395Z,55.30
2022-12-25T12:10:20.672Z,55.90
2022-12-25T12:12:49.208Z,56.00
2022-12-25T12:15:39.556Z,55.90
2022-12-25T12:18:23.348Z,55.80
2022-12-25T12:21:10.540Z,55.80
2022-12-25T12:23:57.498Z,55.90
2022-12-25T12:26:25.837Z,55.90
2022-12-25T12:28:53.509Z,55.80
2022-12-25T12:31:20.190Z,55.80
2022-12-25T12:33:59.522Z,56.30
2022-12-25T12:36:35.719Z,56.20
2022-12-25T12:39:05.039Z,56.20
2022-12-25T12:42:00.852Z,56.10
2022-12-25T12:44:31.757Z,56.10
2022-12-25T12:46:58.422Z,56.30
2022-12-25T12:49:26.929Z,56.30
2022-12-25T12:52:06.969Z,56.30
2022-12-25T12:54:53.589Z,56.10
2022-12-25T12:57:27.100Z,56.40
2022-12-25T12:59:53.708Z,56.20
2022-12-25T13:02:23.216Z,56.10
2022-12-25T13:04:49.813Z,56.10
2022-12-25T13:07:44.046Z,56.30
2022-12-25T13:10:13.627Z,56.10
2022-12-25T13:12:40.223Z,56.10
2022-12-25T13:15:13.818Z,56.40
2022-12-25T13:17:43.373Z,56.40
2022-12-25T13:20:19.892Z,56.50
2022-12-25T13:22:52.368Z,56.30
2022-12-25T13:25:21.366Z,56.20
2022-12-25T13:27:54.422Z,56.20
2022-12-25T13:30:21.399Z,56.30
2022-12-25T13:32:49.197Z,56.50
2022-12-25T13:35:17.197Z,56.40
2022-12-25T13:37:44.183Z,56.30
2022-12-25T13:40:20.658Z,56.50
2022-12-25T13:42:49.144Z,56.60
2022-12-25T13:45:21.875Z,56.90
2022-12-25T13:47:54.900Z,56.90
2022-12-25T13:50:31.881Z,56.90
2022-12-25T13:53:10.033Z,56.70
2022-12-25T13:55:36.685Z,56.90
2022-12-25T13:58:04.858Z,56.70
2022-12-25T14:00:38.576Z,56.70
2022-12-25T14:03:07.405Z,56.80
2022-12-25T14:05:42.195Z,56.80
2022-12-25T14:08:22.704Z,56.80
2022-12-25T14:10:50.363Z,56.90
2022-12-25T14:13:18.033Z,57.20
2022-12-25T14:15:45.573Z,57.10
2022-12-25T14:18:18.891Z,57.10
2022-12-25T14:20:57.224Z,56.80
2022-12-25T14:23:24.102Z,56.80
2022-12-25T14:25:50.806Z,56.70
2022-12-25T14:28:37.646Z,57.70
2022-12-25T14:31:04.909Z,57.60
2022-12-25T14:33:35.258Z,57.90
2022-12-25T14:36:02.311Z,58.50
2022-12-25T14:38:32.359Z,57.60
2022-12-25T14:41:03.693Z,57.70
2022-12-25T14:43:31.021Z,57.20
2022-12-25T14:45:59.953Z,58.10
2022-12-25T14:48:28.691Z,57.90
2022-12-25T14:51:04.440Z,58.00
2022-12-25T14:53:34.474Z,57.80
2022-12-25T14:56:01.177Z,57.60
2022-12-25T14:58:31.072Z,57.30
2022-12-25T15:00:58.853Z,57.10
2022-12-25T15:03:34.956Z,57.20
2022-12-25T15:06:06.447Z,57.00
2022-12-25T15:08:34.390Z,56.90
2022-12-25T15:11:02.600Z,56.90
2022-12-25T15:13:30.705Z,56.90
2022-12-25T15:15:59.687Z,57.60
2022-12-25T15:18:27.985Z,57.20
2022-12-25T15:20:56.299Z,57.00
2022-12-25T17:38:41.585Z,58.00
2022-12-25T17:41:09.790Z,58.10
2022-12-25T17:43:37.505Z,58.10
2022-12-25T17:46:06.168Z,58.10
2022-12-25T17:48:32.929Z,58.00
2022-12-25T17:51:03.103Z,57.90
2022-12-25T17:53:30.057Z,57.60
2022-12-25T17:55:59.837Z,57.80
2022-12-25T17:58:27.121Z,58.00
2022-12-25T18:00:53.887Z,58.10
2022-12-25T18:03:21.292Z,58.50
2022-12-25T18:05:48.128Z,58.00
2022-12-25T18:08:14.880Z,58.00
2022-12-25T18:10:43.805Z,58.30
2022-12-25T18:13:11.334Z,58.20
2022-12-25T18:15:39.014Z,58.30
2022-12-25T18:18:06.007Z,59.30
2022-12-25T18:20:39.406Z,58.90
2022-12-25T18:23:06.712Z,59.30
2022-12-25T18:25:33.788Z,58.70
2022-12-25T18:28:02.712Z,59.20
2022-12-25T18:30:29.554Z,59.20
2022-12-25T18:32:56.096Z,58.90
2022-12-25T18:35:22.687Z,58.90
2022-12-25T18:37:49.275Z,59.20
2022-12-25T18:40:15.846Z,58.70
2022-12-25T18:42:43.262Z,58.90
2022-12-25T18:45:11.763Z,58.50
2022-12-25T18:47:38.604Z,58.80
2022-12-25T18:50:06.196Z,59.20
2022-12-25T19:09:09.003Z,58.70
2022-12-25T19:30:00.573Z,58.90
2022-12-25T19:32:27.121Z,59.10
2022-12-25T19:34:53.697Z,59.10
2022-12-25T19:37:20.892Z,59.00
2022-12-25T19:39:47.591Z,59.10
2022-12-25T19:42:14.868Z,59.00
2022-12-25T19:44:41.537Z,59.10
2022-12-25T19:47:09.056Z,59.30
2022-12-25T19:49:36.017Z,59.30
2022-12-25T19:52:02.567Z,59.30
2022-12-25T19:54:29.627Z,59.30
2022-12-25T19:56:56.222Z,59.30
2022-12-25T19:59:22.957Z,59.30
2022-12-25T20:01:49.887Z,59.50
2022-12-25T20:04:18.091Z,59.50
2022-12-25T20:06:44.908Z,59.50
2022-12-25T20:09:13.496Z,59.60
2022-12-25T20:11:40.726Z,59.60
2022-12-25T20:14:08.069Z,59.60
2022-12-25T20:16:38.337Z,59.80
2022-12-25T20:19:05.106Z,59.80
2022-12-25T20:21:31.692Z,59.80
2022-12-25T20:23:58.797Z,59.70
2022-12-25T20:26:27.470Z,59.80
2022-12-25T20:28:54.275Z,59.90
2022-12-25T20:31:22.658Z,60.00
2022-12-25T20:33:49.519Z,60.00
2022-12-25T20:36:16.377Z,59.90
2022-12-25T20:38:42.956Z,59.90
2022-12-25T20:41:29.714Z,59.90
2022-12-25T20:43:57.126Z,59.90
2022-12-25T20:46:24.535Z,59.50
2022-12-25T20:48:52.747Z,59.40
2022-12-25T20:51:21.715Z,59.40
2022-12-25T20:53:49.073Z,60.30
2022-12-25T20:56:18.230Z,59.80
2022-12-25T20:58:44.893Z,59.60
2022-12-25T21:01:16.034Z,59.90
2022-12-25T21:03:42.992Z,59.90
2022-12-25T21:06:10.032Z,60.30
2022-12-25T21:08:37.198Z,60.00
2022-12-25T21:11:04.366Z,60.30
2022-12-25T21:13:38.590Z,60.60
2022-12-25T21:16:05.665Z,60.20
2022-12-25T21:18:32.326Z,60.30
2022-12-25T21:20:59.368Z,60.40
2022-12-25T21:23:28.916Z,60.50
2022-12-25T21:25:55.476Z,60.30
2022-12-25T21:28:22.639Z,60.30
2022-12-25T21:30:49.326Z,60.30
2022-12-25T21:33:34.650Z,60.50
2022-12-25T21:36:05.315Z,60.60
2022-12-25T21:38:31.890Z,60.80
2022-12-25T21:41:02.592Z,60.50
2022-12-25T21:43:29.147Z,60.60
2022-12-25T21:45:55.775Z,60.80
2022-12-25T21:48:22.382Z,60.80
2022-12-25T21:51:07.446Z,60.80
2022-12-25T21:53:34.022Z,61.20
2022-12-25T21:56:02.394Z,61.20
2022-12-25T21:58:29.019Z,61.20
2022-12-25T22:00:55.677Z,61.10
2022-12-25T22:03:23.593Z,60.90
2022-12-25T22:06:08.985Z,61.10
2022-12-25T22:08:35.601Z,60.90
2022-12-25T22:11:02.919Z,60.90
2022-12-25T22:13:47.942Z,61.10
2022-12-25T22:16:32.965Z,61.30
2022-12-25T22:19:18.155Z,61.50
2022-12-25T22:21:44.718Z,61.50
2022-12-25T22:24:11.288Z,61.40
2022-12-25T22:26:37.856Z,61.40
2022-12-25T22:29:04.430Z,61.70
2022-12-25T22:31:31.084Z,61.80
2022-12-25T22:33:57.711Z,61.90
2022-12-25T22:36:24.280Z,61.90
2022-12-25T22:38:50.829Z,61.80
2022-12-25T22:41:17.380Z,61.90
2022-12-25T22:44:16.100Z,62.10
2022-12-25T22:46:30.533Z,61.90
2022-12-25T22:48:57.308Z,61.90
2022-12-25T22:51:23.904Z,62.10
2022-12-25T22:53:50.470Z,62.10
2022-12-25T22:56:17.109Z,62.10
2022-12-25T22:58:43.661Z,62.10
2022-12-25T23:01:10.774Z,62.00
2022-12-25T23:03:37.762Z,62.30
2022-12-25T23:06:04.541Z,62.10
2022-12-25T23:08:31.194Z,62.20
2022-12-25T23:11:02.153Z,62.30
2022-12-25T23:13:47.544Z,62.00
2022-12-25T23:16:14.989Z,61.80
2022-12-25T23:19:00.447Z,62.40
2022-12-25T23:21:46.588Z,61.90
2022-12-25T23:24:31.713Z,61.90
2022-12-25T23:26:58.301Z,61.40
2022-12-25T23:29:36.721Z,61.20
2022-12-25T23:32:03.273Z,61.10
2022-12-25T23:34:29.817Z,60.80
2022-12-25T23:36:56.559Z,61.10
2022-12-25T23:39:23.146Z,61.10
2022-12-25T23:41:49.713Z,60.80
2022-12-25T23:44:16.263Z,61.30
2022-12-25T23:46:52.382Z,61.30
2022-12-25T23:49:19.702Z,61.60
2022-12-25T23:51:46.713Z,61.60
2022-12-25T23:54:14.596Z,61.80
2022-12-25T23:56:41.680Z,61.60
2022-12-25T23:59:08.846Z,61.70
